sensor_id;sensor_type;location;lat;lon;timestamp;temperature;humidity
68480;DHT22;55469;48.934;12.050;2022-08-01T00:00:40;24.70;51.80
68480;DHT22;55469;48.934;12.050;2022-08-01T00:03:05;24.70;51.90
68480;DHT22;55469;48.934;12.050;2022-08-01T00:05:31;24.70;52.00
68480;DHT22;55469;48.934;12.050;2022-08-01T00:07:57;24.70;52.10
68480;DHT22;55469;48.934;12.050;2022-08-01T00:10:23;24.70;52.10
68480;DHT22;55469;48.934;12.050;2022-08-01T00:12:49;24.60;52.10
68480;DHT22;55469;48.934;12.050;2022-08-01T00:15:16;24.70;52.20
68480;DHT22;55469;48.934;12.050;2022-08-01T00:17:43;24.70;52.20
68480;DHT22;55469;48.934;12.050;2022-08-01T00:20:11;24.60;52.10
68480;DHT22;55469;48.934;12.050;2022-08-01T00:22:38;24.60;52.10
68480;DHT22;55469;48.934;12.050;2022-08-01T00:25:05;24.60;52.20
68480;DHT22;55469;48.934;12.050;2022-08-01T00:27:31;24.60;52.20
68480;DHT22;55469;48.934;12.050;2022-08-01T00:29:58;24.60;52.20
68480;DHT22;55469;48.934;12.050;2022-08-01T00:32:24;24.60;52.30
68480;DHT22;55469;48.934;12.050;2022-08-01T00:34:50;24.60;53.30
68480;DHT22;55469;48.934;12.050;2022-08-01T00:37:16;24.60;52.40
68480;DHT22;55469;48.934;12.050;2022-08-01T00:39:42;24.60;52.50
68480;DHT22;55469;48.934;12.050;2022-08-01T00:42:10;24.60;52.40
68480;DHT22;55469;48.934;12.050;2022-08-01T00:44:36;24.50;52.40
68480;DHT22;55469;48.934;12.050;2022-08-01T00:47:03;24.50;52.40
68480;DHT22;55469;48.934;12.050;2022-08-01T00:49:29;24.50;52.40
68480;DHT22;55469;48.934;12.050;2022-08-01T00:51:55;24.50;52.50
68480;DHT22;55469;48.934;12.050;2022-08-01T00:54:24;24.50;52.50
68480;DHT22;55469;48.934;12.050;2022-08-01T00:56:50;24.50;52.50
68480;DHT22;55469;48.934;12.050;2022-08-01T00:59:21;24.50;52.60
68480;DHT22;55469;48.934;12.050;2022-08-01T01:01:48;24.40;52.60
68480;DHT22;55469;48.934;12.050;2022-08-01T01:04:14;24.50;52.60
68480;DHT22;55469;48.934;12.050;2022-08-01T01:14:51;24.40;52.60
68480;DHT22;55469;48.934;12.050;2022-08-01T01:17:26;24.40;52.70
68480;DHT22;55469;48.934;12.050;2022-08-01T01:19:56;24.40;52.70
68480;DHT22;55469;48.934;12.050;2022-08-01T01:22:46;24.30;52.70
68480;DHT22;55469;48.934;12.050;2022-08-01T01:28:17;24.30;52.70
68480;DHT22;55469;48.934;12.050;2022-08-01T01:30:51;24.30;52.70
68480;DHT22;55469;48.934;12.050;2022-08-01T01:33:19;24.30;52.70
68480;DHT22;55469;48.934;12.050;2022-08-01T01:35:49;24.30;52.80
68480;DHT22;55469;48.934;12.050;2022-08-01T01:38:21;24.30;52.70
68480;DHT22;55469;48.934;12.050;2022-08-01T01:40:50;24.30;52.70
68480;DHT22;55469;48.934;12.050;2022-08-01T01:43:18;24.30;52.70
68480;DHT22;55469;48.934;12.050;2022-08-01T01:45:46;24.30;52.70
68480;DHT22;55469;48.934;12.050;2022-08-01T01:48:14;24.20;52.70
68480;DHT22;55469;48.934;12.050;2022-08-01T01:50:43;24.20;52.80
68480;DHT22;55469;48.934;12.050;2022-08-01T01:53:13;24.10;52.70
68480;DHT22;55469;48.934;12.050;2022-08-01T01:55:43;24.10;52.80
68480;DHT22;55469;48.934;12.050;2022-08-01T01:58:13;24.10;52.90
68480;DHT22;55469;48.934;12.050;2022-08-01T02:00:43;24.10;52.90
68480;DHT22;55469;48.934;12.050;2022-08-01T02:03:12;24.10;54.00
68480;DHT22;55469;48.934;12.050;2022-08-01T02:05:38;24.00;52.80
68480;DHT22;55469;48.934;12.050;2022-08-01T02:08:05;24.00;53.00
68480;DHT22;55469;48.934;12.050;2022-08-01T02:10:32;24.00;53.00
68480;DHT22;55469;48.934;12.050;2022-08-01T02:13:04;24.00;53.00
68480;DHT22;55469;48.934;12.050;2022-08-01T02:15:33;24.00;53.10
68480;DHT22;55469;48.934;12.050;2022-08-01T02:18:05;24.00;53.10
68480;DHT22;55469;48.934;12.050;2022-08-01T02:20:34;24.00;53.20
68480;DHT22;55469;48.934;12.050;2022-08-01T02:23:11;23.90;53.10
68480;DHT22;55469;48.934;12.050;2022-08-01T02:25:49;24.00;53.20
68480;DHT22;55469;48.934;12.050;2022-08-01T02:28:25;23.90;53.20
68480;DHT22;55469;48.934;12.050;2022-08-01T02:30:59;23.90;53.40
68480;DHT22;55469;48.934;12.050;2022-08-01T02:33:34;23.80;53.30
68480;DHT22;55469;48.934;12.050;2022-08-01T02:36:03;23.80;53.50
68480;DHT22;55469;48.934;12.050;2022-08-01T02:38:34;23.80;53.50
68480;DHT22;55469;48.934;12.050;2022-08-01T02:41:09;23.80;53.50
68480;DHT22;55469;48.934;12.050;2022-08-01T02:43:42;23.80;53.60
68480;DHT22;55469;48.934;12.050;2022-08-01T02:46:12;23.80;53.70
68480;DHT22;55469;48.934;12.050;2022-08-01T02:48:42;23.80;53.70
68480;DHT22;55469;48.934;12.050;2022-08-01T02:51:09;23.70;53.70
68480;DHT22;55469;48.934;12.050;2022-08-01T02:53:38;23.80;53.70
68480;DHT22;55469;48.934;12.050;2022-08-01T02:56:08;23.70;53.60
68480;DHT22;55469;48.934;12.050;2022-08-01T02:58:35;23.80;53.70
68480;DHT22;55469;48.934;12.050;2022-08-01T03:01:04;23.80;53.70
68480;DHT22;55469;48.934;12.050;2022-08-01T03:03:31;23.70;53.70
68480;DHT22;55469;48.934;12.050;2022-08-01T03:05:58;23.70;53.70
68480;DHT22;55469;48.934;12.050;2022-08-01T03:08:25;23.70;53.80
68480;DHT22;55469;48.934;12.050;2022-08-01T03:10:52;23.70;53.80
68480;DHT22;55469;48.934;12.050;2022-08-01T03:13:20;23.70;53.90
68480;DHT22;55469;48.934;12.050;2022-08-01T03:15:48;23.70;53.80
68480;DHT22;55469;48.934;12.050;2022-08-01T03:18:15;23.70;53.80
68480;DHT22;55469;48.934;12.050;2022-08-01T03:20:42;23.70;53.80
68480;DHT22;55469;48.934;12.050;2022-08-01T03:23:10;23.60;53.90
68480;DHT22;55469;48.934;12.050;2022-08-01T03:25:39;23.60;53.90
68480;DHT22;55469;48.934;12.050;2022-08-01T03:28:08;23.60;53.90
68480;DHT22;55469;48.934;12.050;2022-08-01T03:30:37;23.60;53.90
68480;DHT22;55469;48.934;12.050;2022-08-01T03:33:03;23.70;53.90
68480;DHT22;55469;48.934;12.050;2022-08-01T03:35:50;23.60;54.00
68480;DHT22;55469;48.934;12.050;2022-08-01T03:38:22;23.60;54.90
68480;DHT22;55469;48.934;12.050;2022-08-01T03:41:15;23.60;53.90
68480;DHT22;55469;48.934;12.050;2022-08-01T03:44:02;23.60;53.90
68480;DHT22;55469;48.934;12.050;2022-08-01T03:46:47;23.60;53.90
68480;DHT22;55469;48.934;12.050;2022-08-01T03:49:20;23.50;53.90
68480;DHT22;55469;48.934;12.050;2022-08-01T03:51:48;23.50;53.90
68480;DHT22;55469;48.934;12.050;2022-08-01T03:54:17;23.50;53.90
68480;DHT22;55469;48.934;12.050;2022-08-01T03:56:48;23.50;54.00
68480;DHT22;55469;48.934;12.050;2022-08-01T03:59:16;23.50;54.00
68480;DHT22;55469;48.934;12.050;2022-08-01T04:01:44;23.50;53.90
68480;DHT22;55469;48.934;12.050;2022-08-01T04:04:11;23.50;54.00
68480;DHT22;55469;48.934;12.050;2022-08-01T04:06:38;23.50;54.00
68480;DHT22;55469;48.934;12.050;2022-08-01T04:09:07;23.50;54.00
68480;DHT22;55469;48.934;12.050;2022-08-01T04:11:33;23.50;54.00
68480;DHT22;55469;48.934;12.050;2022-08-01T04:13:59;23.40;54.00
68480;DHT22;55469;48.934;12.050;2022-08-01T04:16:25;23.40;54.00
68480;DHT22;55469;48.934;12.050;2022-08-01T04:18:51;23.40;54.00
68480;DHT22;55469;48.934;12.050;2022-08-01T04:21:23;23.40;54.00
68480;DHT22;55469;48.934;12.050;2022-08-01T04:23:56;23.40;54.10
68480;DHT22;55469;48.934;12.050;2022-08-01T04:26:24;23.40;54.20
68480;DHT22;55469;48.934;12.050;2022-08-01T04:28:52;23.40;54.20
68480;DHT22;55469;48.934;12.050;2022-08-01T04:31:20;23.40;54.10
68480;DHT22;55469;48.934;12.050;2022-08-01T04:33:51;23.40;54.20
68480;DHT22;55469;48.934;12.050;2022-08-01T04:36:19;23.40;54.20
68480;DHT22;55469;48.934;12.050;2022-08-01T04:38:48;23.40;54.30
68480;DHT22;55469;48.934;12.050;2022-08-01T04:41:18;23.40;54.30
68480;DHT22;55469;48.934;12.050;2022-08-01T04:43:45;23.30;54.30
68480;DHT22;55469;48.934;12.050;2022-08-01T04:46:13;23.30;54.30
68480;DHT22;55469;48.934;12.050;2022-08-01T04:48:40;23.30;54.30
68480;DHT22;55469;48.934;12.050;2022-08-01T04:51:14;23.40;54.50
68480;DHT22;55469;48.934;12.050;2022-08-01T04:53:40;23.30;54.50
68480;DHT22;55469;48.934;12.050;2022-08-01T04:56:06;23.30;54.50
68480;DHT22;55469;48.934;12.050;2022-08-01T04:58:32;23.30;54.50
68480;DHT22;55469;48.934;12.050;2022-08-01T05:00:58;23.30;54.50
68480;DHT22;55469;48.934;12.050;2022-08-01T05:03:24;23.30;54.60
68480;DHT22;55469;48.934;12.050;2022-08-01T05:05:49;23.30;54.60
68480;DHT22;55469;48.934;12.050;2022-08-01T05:08:15;23.30;54.60
68480;DHT22;55469;48.934;12.050;2022-08-01T05:10:42;23.30;54.60
68480;DHT22;55469;48.934;12.050;2022-08-01T05:13:08;23.30;54.70
68480;DHT22;55469;48.934;12.050;2022-08-01T05:15:37;23.30;54.70
68480;DHT22;55469;48.934;12.050;2022-08-01T05:18:03;23.20;54.70
68480;DHT22;55469;48.934;12.050;2022-08-01T05:20:29;23.20;54.70
68480;DHT22;55469;48.934;12.050;2022-08-01T05:22:55;23.20;54.80
68480;DHT22;55469;48.934;12.050;2022-08-01T05:25:20;23.20;54.80
68480;DHT22;55469;48.934;12.050;2022-08-01T05:27:46;23.20;54.80
68480;DHT22;55469;48.934;12.050;2022-08-01T05:30:12;23.20;54.80
68480;DHT22;55469;48.934;12.050;2022-08-01T05:32:38;23.20;54.90
68480;DHT22;55469;48.934;12.050;2022-08-01T05:35:05;23.20;54.90
68480;DHT22;55469;48.934;12.050;2022-08-01T05:37:31;23.20;55.90
68480;DHT22;55469;48.934;12.050;2022-08-01T05:39:57;23.10;54.90
68480;DHT22;55469;48.934;12.050;2022-08-01T05:42:22;23.10;55.00
68480;DHT22;55469;48.934;12.050;2022-08-01T05:44:48;23.10;55.00
68480;DHT22;55469;48.934;12.050;2022-08-01T05:47:15;23.10;55.20
68480;DHT22;55469;48.934;12.050;2022-08-01T05:49:41;23.10;55.10
68480;DHT22;55469;48.934;12.050;2022-08-01T05:52:07;23.10;55.10
68480;DHT22;55469;48.934;12.050;2022-08-01T05:54:33;23.10;56.20
68480;DHT22;55469;48.934;12.050;2022-08-01T05:56:59;23.10;55.30
68480;DHT22;55469;48.934;12.050;2022-08-01T05:59:27;23.00;55.30
68480;DHT22;55469;48.934;12.050;2022-08-01T06:01:54;23.00;55.50
68480;DHT22;55469;48.934;12.050;2022-08-01T06:04:19;23.00;55.40
68480;DHT22;55469;48.934;12.050;2022-08-01T06:06:45;23.00;55.60
68480;DHT22;55469;48.934;12.050;2022-08-01T06:09:11;23.00;55.50
68480;DHT22;55469;48.934;12.050;2022-08-01T06:11:37;23.00;55.50
68480;DHT22;55469;48.934;12.050;2022-08-01T06:14:02;23.00;55.40
68480;DHT22;55469;48.934;12.050;2022-08-01T06:31:22;23.00;55.70
68480;DHT22;55469;48.934;12.050;2022-08-01T06:33:47;23.00;55.70
68480;DHT22;55469;48.934;12.050;2022-08-01T06:36:13;23.00;55.70
68480;DHT22;55469;48.934;12.050;2022-08-01T06:38:39;23.00;55.90
68480;DHT22;55469;48.934;12.050;2022-08-01T06:41:05;23.00;55.90
68480;DHT22;55469;48.934;12.050;2022-08-01T06:43:30;23.00;57.00
68480;DHT22;55469;48.934;12.050;2022-08-01T06:45:56;23.00;56.00
68480;DHT22;55469;48.934;12.050;2022-08-01T06:48:22;23.00;56.10
68480;DHT22;55469;48.934;12.050;2022-08-01T06:50:48;23.00;56.00
68480;DHT22;55469;48.934;12.050;2022-08-01T06:53:14;23.00;57.10
68480;DHT22;55469;48.934;12.050;2022-08-01T06:55:39;23.00;56.00
68480;DHT22;55469;48.934;12.050;2022-08-01T06:58:05;23.00;56.00
68480;DHT22;55469;48.934;12.050;2022-08-01T07:00:31;23.00;56.00
68480;DHT22;55469;48.934;12.050;2022-08-01T07:02:57;23.00;56.10
68480;DHT22;55469;48.934;12.050;2022-08-01T07:05:27;23.00;56.20
68480;DHT22;55469;48.934;12.050;2022-08-01T07:07:56;23.00;56.30
68480;DHT22;55469;48.934;12.050;2022-08-01T07:10:21;23.00;56.50
68480;DHT22;55469;48.934;12.050;2022-08-01T07:12:48;23.00;56.40
68480;DHT22;55469;48.934;12.050;2022-08-01T07:15:14;23.00;56.30
68480;DHT22;55469;48.934;12.050;2022-08-01T07:17:41;23.10;56.60
68480;DHT22;55469;48.934;12.050;2022-08-01T07:20:10;23.00;56.30
68480;DHT22;55469;48.934;12.050;2022-08-01T07:22:37;23.10;56.50
68480;DHT22;55469;48.934;12.050;2022-08-01T07:25:07;23.10;56.50
68480;DHT22;55469;48.934;12.050;2022-08-01T07:27:34;23.00;56.40
68480;DHT22;55469;48.934;12.050;2022-08-01T07:33:41;23.10;56.60
68480;DHT22;55469;48.934;12.050;2022-08-01T07:50:51;23.10;56.90
68480;DHT22;55469;48.934;12.050;2022-08-01T13:49:30;25.50;49.40
68480;DHT22;55469;48.934;12.050;2022-08-01T15:18:28;26.30;46.00
68480;DHT22;55469;48.934;12.050;2022-08-01T15:20:55;26.30;45.90
68480;DHT22;55469;48.934;12.050;2022-08-01T15:23:22;26.30;45.90
68480;DHT22;55469;48.934;12.050;2022-08-01T15:25:48;26.40;45.80
68480;DHT22;55469;48.934;12.050;2022-08-01T15:28:14;26.40;45.90
68480;DHT22;55469;48.934;12.050;2022-08-01T15:30:40;26.50;45.40
68480;DHT22;55469;48.934;12.050;2022-08-01T15:33:09;26.50;45.20
68480;DHT22;55469;48.934;12.050;2022-08-01T15:35:35;26.50;45.50
68480;DHT22;55469;48.934;12.050;2022-08-01T15:38:00;26.50;45.60
68480;DHT22;55469;48.934;12.050;2022-08-01T15:40:26;26.50;45.50
68480;DHT22;55469;48.934;12.050;2022-08-01T15:42:53;26.50;45.40
68480;DHT22;55469;48.934;12.050;2022-08-01T15:45:19;26.60;45.40
68480;DHT22;55469;48.934;12.050;2022-08-01T15:47:46;26.50;45.40
68480;DHT22;55469;48.934;12.050;2022-08-01T15:50:12;26.60;45.40
68480;DHT22;55469;48.934;12.050;2022-08-01T15:52:38;26.60;45.20
68480;DHT22;55469;48.934;12.050;2022-08-01T15:55:04;26.60;45.30
68480;DHT22;55469;48.934;12.050;2022-08-01T15:57:30;26.60;45.20
68480;DHT22;55469;48.934;12.050;2022-08-01T15:59:56;26.70;45.10
68480;DHT22;55469;48.934;12.050;2022-08-01T16:02:22;26.70;44.60
68480;DHT22;55469;48.934;12.050;2022-08-01T16:04:50;26.60;44.70
68480;DHT22;55469;48.934;12.050;2022-08-01T16:07:15;26.60;44.50
68480;DHT22;55469;48.934;12.050;2022-08-01T16:09:41;26.60;44.20
68480;DHT22;55469;48.934;12.050;2022-08-01T16:12:07;26.70;44.20
68480;DHT22;55469;48.934;12.050;2022-08-01T16:14:34;26.70;44.50
68480;DHT22;55469;48.934;12.050;2022-08-01T16:17:00;26.70;44.40
68480;DHT22;55469;48.934;12.050;2022-08-01T16:19:25;26.70;44.50
68480;DHT22;55469;48.934;12.050;2022-08-01T16:21:51;26.60;44.40
68480;DHT22;55469;48.934;12.050;2022-08-01T16:24:17;26.60;44.30
68480;DHT22;55469;48.934;12.050;2022-08-01T16:26:43;26.70;44.40
68480;DHT22;55469;48.934;12.050;2022-08-01T16:29:08;26.70;44.40
68480;DHT22;55469;48.934;12.050;2022-08-01T16:31:34;26.70;44.50
68480;DHT22;55469;48.934;12.050;2022-08-01T16:34:00;26.70;44.50
68480;DHT22;55469;48.934;12.050;2022-08-01T16:36:26;26.70;44.40
68480;DHT22;55469;48.934;12.050;2022-08-01T16:38:52;26.70;44.50
68480;DHT22;55469;48.934;12.050;2022-08-01T16:41:19;26.70;44.60
68480;DHT22;55469;48.934;12.050;2022-08-01T16:43:45;26.70;44.80
68480;DHT22;55469;48.934;12.050;2022-08-01T16:46:11;26.70;45.10
68480;DHT22;55469;48.934;12.050;2022-08-01T16:48:36;26.70;45.20
68480;DHT22;55469;48.934;12.050;2022-08-01T16:51:02;26.70;45.30
68480;DHT22;55469;48.934;12.050;2022-08-01T16:53:28;26.70;45.30
68480;DHT22;55469;48.934;12.050;2022-08-01T16:55:54;26.70;45.30
68480;DHT22;55469;48.934;12.050;2022-08-01T16:58:22;26.70;45.50
68480;DHT22;55469;48.934;12.050;2022-08-01T17:00:48;26.70;45.50
68480;DHT22;55469;48.934;12.050;2022-08-01T17:03:17;26.70;45.60
68480;DHT22;55469;48.934;12.050;2022-08-01T17:05:44;26.70;45.30
68480;DHT22;55469;48.934;12.050;2022-08-01T17:08:09;26.80;45.40
68480;DHT22;55469;48.934;12.050;2022-08-01T17:10:37;26.80;45.50
68480;DHT22;55469;48.934;12.050;2022-08-01T17:13:03;26.80;45.60
68480;DHT22;55469;48.934;12.050;2022-08-01T17:15:30;26.80;45.90
68480;DHT22;55469;48.934;12.050;2022-08-01T17:17:59;26.80;46.20
68480;DHT22;55469;48.934;12.050;2022-08-01T17:20:26;26.80;46.60
68480;DHT22;55469;48.934;12.050;2022-08-01T17:22:52;26.80;46.90
68480;DHT22;55469;48.934;12.050;2022-08-01T17:25:18;26.80;47.20
68480;DHT22;55469;48.934;12.050;2022-08-01T17:27:46;26.70;47.20
68480;DHT22;55469;48.934;12.050;2022-08-01T17:30:16;26.70;47.30
68480;DHT22;55469;48.934;12.050;2022-08-01T17:32:42;26.70;47.50
68480;DHT22;55469;48.934;12.050;2022-08-01T17:35:10;26.70;47.60
68480;DHT22;55469;48.934;12.050;2022-08-01T17:37:37;26.70;47.90
68480;DHT22;55469;48.934;12.050;2022-08-01T17:40:05;26.70;48.10
68480;DHT22;55469;48.934;12.050;2022-08-01T17:42:31;26.70;48.40
68480;DHT22;55469;48.934;12.050;2022-08-01T17:44:57;26.70;48.50
68480;DHT22;55469;48.934;12.050;2022-08-01T17:47:24;26.70;48.60
68480;DHT22;55469;48.934;12.050;2022-08-01T17:49:49;26.70;48.70
68480;DHT22;55469;48.934;12.050;2022-08-01T17:52:15;26.70;48.80
68480;DHT22;55469;48.934;12.050;2022-08-01T17:54:41;26.70;48.80
68480;DHT22;55469;48.934;12.050;2022-08-01T17:57:07;26.70;48.90
68480;DHT22;55469;48.934;12.050;2022-08-01T17:59:34;26.70;49.00
68480;DHT22;55469;48.934;12.050;2022-08-01T18:02:00;26.70;49.00
68480;DHT22;55469;48.934;12.050;2022-08-01T18:04:26;26.70;49.00
68480;DHT22;55469;48.934;12.050;2022-08-01T18:06:52;26.70;49.00
68480;DHT22;55469;48.934;12.050;2022-08-01T18:09:17;26.70;49.00
68480;DHT22;55469;48.934;12.050;2022-08-01T18:11:43;26.60;48.90
68480;DHT22;55469;48.934;12.050;2022-08-01T18:14:09;26.60;48.90
68480;DHT22;55469;48.934;12.050;2022-08-01T18:16:35;26.70;49.00
68480;DHT22;55469;48.934;12.050;2022-08-01T18:19:01;26.70;48.80
68480;DHT22;55469;48.934;12.050;2022-08-01T18:21:29;26.70;48.90
68480;DHT22;55469;48.934;12.050;2022-08-01T18:23:56;26.70;49.10
68480;DHT22;55469;48.934;12.050;2022-08-01T18:26:22;26.70;49.10
68480;DHT22;55469;48.934;12.050;2022-08-01T18:28:47;26.70;49.10
68480;DHT22;55469;48.934;12.050;2022-08-01T18:31:13;26.70;49.10
68480;DHT22;55469;48.934;12.050;2022-08-01T18:33:45;26.70;49.10
68480;DHT22;55469;48.934;12.050;2022-08-01T18:36:11;26.70;49.00
68480;DHT22;55469;48.934;12.050;2022-08-01T18:38:37;26.70;49.10
68480;DHT22;55469;48.934;12.050;2022-08-01T18:41:03;26.70;49.10
68480;DHT22;55469;48.934;12.050;2022-08-01T18:43:30;26.70;49.20
68480;DHT22;55469;48.934;12.050;2022-08-01T18:45:55;26.70;49.10
68480;DHT22;55469;48.934;12.050;2022-08-01T18:48:22;26.70;49.20
68480;DHT22;55469;48.934;12.050;2022-08-01T18:50:47;26.80;49.30
68480;DHT22;55469;48.934;12.050;2022-08-01T18:53:16;26.80;49.20
68480;DHT22;55469;48.934;12.050;2022-08-01T18:55:42;26.80;49.40
68480;DHT22;55469;48.934;12.050;2022-08-01T18:58:08;26.70;49.40
68480;DHT22;55469;48.934;12.050;2022-08-01T19:00:34;26.70;49.30
68480;DHT22;55469;48.934;12.050;2022-08-01T19:03:00;26.80;49.40
68480;DHT22;55469;48.934;12.050;2022-08-01T19:05:26;26.80;49.50
68480;DHT22;55469;48.934;12.050;2022-08-01T19:07:51;26.80;49.40
68480;DHT22;55469;48.934;12.050;2022-08-01T19:10:17;26.70;49.50
68480;DHT22;55469;48.934;12.050;2022-08-01T19:12:43;26.80;49.60
68480;DHT22;55469;48.934;12.050;2022-08-01T19:15:09;26.80;49.70
68480;DHT22;55469;48.934;12.050;2022-08-01T19:17:35;26.70;49.60
68480;DHT22;55469;48.934;12.050;2022-08-01T19:20:00;26.70;49.60
68480;DHT22;55469;48.934;12.050;2022-08-01T19:22:26;26.80;49.60
68480;DHT22;55469;48.934;12.050;2022-08-01T19:24:52;26.70;49.70
68480;DHT22;55469;48.934;12.050;2022-08-01T19:27:20;26.70;49.80
68480;DHT22;55469;48.934;12.050;2022-08-01T19:29:51;26.70;49.90
68480;DHT22;55469;48.934;12.050;2022-08-01T19:32:20;26.70;49.90
68480;DHT22;55469;48.934;12.050;2022-08-01T19:35:00;26.70;49.80
68480;DHT22;55469;48.934;12.050;2022-08-01T19:37:29;26.70;49.90
68480;DHT22;55469;48.934;12.050;2022-08-01T19:39:56;26.70;50.00
68480;DHT22;55469;48.934;12.050;2022-08-01T19:42:27;26.70;50.10
68480;DHT22;55469;48.934;12.050;2022-08-01T19:44:54;26.70;50.10
68480;DHT22;55469;48.934;12.050;2022-08-01T19:47:20;26.70;50.20
68480;DHT22;55469;48.934;12.050;2022-08-01T19:49:46;26.70;50.10
68480;DHT22;55469;48.934;12.050;2022-08-01T19:52:14;26.70;50.10
68480;DHT22;55469;48.934;12.050;2022-08-01T19:54:43;26.70;50.30
68480;DHT22;55469;48.934;12.050;2022-08-01T19:57:13;26.70;50.30
68480;DHT22;55469;48.934;12.050;2022-08-01T19:59:40;26.70;50.40
68480;DHT22;55469;48.934;12.050;2022-08-01T20:02:06;26.70;50.30
68480;DHT22;55469;48.934;12.050;2022-08-01T20:04:33;26.70;50.30
68480;DHT22;55469;48.934;12.050;2022-08-01T20:06:59;26.70;50.20
68480;DHT22;55469;48.934;12.050;2022-08-01T20:09:27;26.70;50.40
68480;DHT22;55469;48.934;12.050;2022-08-01T20:11:54;26.70;50.30
68480;DHT22;55469;48.934;12.050;2022-08-01T20:14:21;26.70;50.40
68480;DHT22;55469;48.934;12.050;2022-08-01T20:16:49;26.70;50.50
68480;DHT22;55469;48.934;12.050;2022-08-01T20:19:17;26.70;50.50
68480;DHT22;55469;48.934;12.050;2022-08-01T20:21:48;26.70;50.60
68480;DHT22;55469;48.934;12.050;2022-08-01T20:24:17;26.60;50.60
68480;DHT22;55469;48.934;12.050;2022-08-01T20:26:47;26.60;50.70
68480;DHT22;55469;48.934;12.050;2022-08-01T20:29:16;26.50;50.80
68480;DHT22;55469;48.934;12.050;2022-08-01T20:31:47;26.60;51.00
68480;DHT22;55469;48.934;12.050;2022-08-01T20:34:18;26.60;51.20
68480;DHT22;55469;48.934;12.050;2022-08-01T20:36:46;26.50;51.20
68480;DHT22;55469;48.934;12.050;2022-08-01T20:39:13;26.60;51.40
68480;DHT22;55469;48.934;12.050;2022-08-01T20:41:39;26.50;51.20
68480;DHT22;55469;48.934;12.050;2022-08-01T20:44:08;26.60;51.10
68480;DHT22;55469;48.934;12.050;2022-08-01T20:46:36;26.60;51.50
68480;DHT22;55469;48.934;12.050;2022-08-01T20:49:03;26.60;51.50
68480;DHT22;55469;48.934;12.050;2022-08-01T20:51:29;26.60;51.60
68480;DHT22;55469;48.934;12.050;2022-08-01T20:53:56;26.60;51.60
68480;DHT22;55469;48.934;12.050;2022-08-01T20:59:08;26.60;51.90
68480;DHT22;55469;48.934;12.050;2022-08-01T21:01:41;26.50;51.80
68480;DHT22;55469;48.934;12.050;2022-08-01T21:04:31;26.50;51.80
68480;DHT22;55469;48.934;12.050;2022-08-01T21:10:10;26.50;51.80
68480;DHT22;55469;48.934;12.050;2022-08-01T21:12:59;26.50;51.80
68480;DHT22;55469;48.934;12.050;2022-08-01T21:15:33;26.50;51.80
68480;DHT22;55469;48.934;12.050;2022-08-01T21:18:10;26.50;51.80
68480;DHT22;55469;48.934;12.050;2022-08-01T21:20:41;26.50;51.90
68480;DHT22;55469;48.934;12.050;2022-08-01T21:23:37;26.40;51.90
68480;DHT22;55469;48.934;12.050;2022-08-01T21:26:08;26.50;52.10
68480;DHT22;55469;48.934;12.050;2022-08-01T21:28:35;26.40;51.90
68480;DHT22;55469;48.934;12.050;2022-08-01T21:31:02;26.50;52.10
68480;DHT22;55469;48.934;12.050;2022-08-01T21:33:29;26.40;52.00
68480;DHT22;55469;48.934;12.050;2022-08-01T21:35:58;26.40;52.10
68480;DHT22;55469;48.934;12.050;2022-08-01T21:38:25;26.40;53.20
68480;DHT22;55469;48.934;12.050;2022-08-01T21:40:52;26.40;52.20
68480;DHT22;55469;48.934;12.050;2022-08-01T21:43:20;26.40;52.30
68480;DHT22;55469;48.934;12.050;2022-08-01T21:45:48;26.40;52.30
68480;DHT22;55469;48.934;12.050;2022-08-01T21:48:15;26.30;52.30
68480;DHT22;55469;48.934;12.050;2022-08-01T21:53:34;26.30;52.40
68480;DHT22;55469;48.934;12.050;2022-08-01T21:56:07;26.30;52.50
68480;DHT22;55469;48.934;12.050;2022-08-01T21:59:01;26.30;52.50
68480;DHT22;55469;48.934;12.050;2022-08-01T22:01:51;26.30;52.70
68480;DHT22;55469;48.934;12.050;2022-08-01T22:07:14;26.30;52.80
68480;DHT22;55469;48.934;12.050;2022-08-01T22:09:45;26.30;53.00
68480;DHT22;55469;48.934;12.050;2022-08-01T22:12:14;26.30;53.10
68480;DHT22;55469;48.934;12.050;2022-08-01T22:14:44;26.30;53.60
68480;DHT22;55469;48.934;12.050;2022-08-01T22:17:19;26.30;53.60
68480;DHT22;55469;48.934;12.050;2022-08-01T22:19:50;26.30;53.70
68480;DHT22;55469;48.934;12.050;2022-08-01T22:22:20;26.20;53.70
68480;DHT22;55469;48.934;12.050;2022-08-01T22:24:51;26.20;53.90
68480;DHT22;55469;48.934;12.050;2022-08-01T22:27:17;26.20;54.00
68480;DHT22;55469;48.934;12.050;2022-08-01T22:32:27;26.20;54.20
68480;DHT22;55469;48.934;12.050;2022-08-01T22:34:55;26.20;54.30
68480;DHT22;55469;48.934;12.050;2022-08-01T22:37:24;26.20;54.50
68480;DHT22;55469;48.934;12.050;2022-08-01T22:39:50;26.20;54.60
68480;DHT22;55469;48.934;12.050;2022-08-01T22:42:19;26.10;54.40
68480;DHT22;55469;48.934;12.050;2022-08-01T22:44:50;26.20;54.80
68480;DHT22;55469;48.934;12.050;2022-08-01T22:47:58;26.10;54.60
68480;DHT22;55469;48.934;12.050;2022-08-01T22:50:49;26.10;54.80
68480;DHT22;55469;48.934;12.050;2022-08-01T22:56:21;26.10;54.90
68480;DHT22;55469;48.934;12.050;2022-08-01T22:58:47;26.10;55.20
68480;DHT22;55469;48.934;12.050;2022-08-01T23:01:19;26.10;55.30
68480;DHT22;55469;48.934;12.050;2022-08-01T23:03:49;26.00;55.80
68480;DHT22;55469;48.934;12.050;2022-08-01T23:06:28;26.00;55.60
68480;DHT22;55469;48.934;12.050;2022-08-01T23:09:03;26.00;55.70
68480;DHT22;55469;48.934;12.050;2022-08-01T23:11:29;26.00;55.90
68480;DHT22;55469;48.934;12.050;2022-08-01T23:13:57;25.90;56.00
68480;DHT22;55469;48.934;12.050;2022-08-01T23:16:24;25.90;55.90
68480;DHT22;55469;48.934;12.050;2022-08-01T23:18:52;25.80;55.90
68480;DHT22;55469;48.934;12.050;2022-08-01T23:21:22;25.80;55.90
68480;DHT22;55469;48.934;12.050;2022-08-01T23:23:48;25.80;56.00
68480;DHT22;55469;48.934;12.050;2022-08-01T23:26:15;25.80;56.00
68480;DHT22;55469;48.934;12.050;2022-08-01T23:28:41;25.80;56.00
68480;DHT22;55469;48.934;12.050;2022-08-01T23:31:10;25.70;56.00
68480;DHT22;55469;48.934;12.050;2022-08-01T23:33:36;25.70;56.10
68480;DHT22;55469;48.934;12.050;2022-08-01T23:36:01;25.70;56.10
68480;DHT22;55469;48.934;12.050;2022-08-01T23:38:27;25.70;56.20
68480;DHT22;55469;48.934;12.050;2022-08-01T23:40:53;25.70;56.20
68480;DHT22;55469;48.934;12.050;2022-08-01T23:43:19;25.60;56.20
68480;DHT22;55469;48.934;12.050;2022-08-01T23:45:46;25.60;56.20